Wawasan Ruby — 3EVU7 — position and weather

sailwx.info

Track history (hours):
 
Tides and Currents Weather Stations Pressure Air Temp Water Temp Dewpoint Dewpoint Depression Visibility Wind Speed Wind Dir Waves Ship Positions

Wawasan Ruby

Last reported at 2017-Aug-21 14:56 UTC. Time now 2017-Aug-21 23:50 UTC.
Position N 22°54' E 119°53'.

Length 146 m; draft 8.8 m.

Type: Tanker. MMSI: 355619000.

Date/timePositionNaut miles runAvg speedWind from/ knotsBaromVisibWave heightAir tempDewpointWater temp
2017-Aug-21 14:56N 22°54' E 119°53'611.7
2017-Aug-21 14:27N 22°48' E 119°53'712.1
2017-Aug-21 13:53N 22°41' E 119°53'512.9
2017-Aug-21 13:30N 22°36' E 119°52'613.0
2017-Aug-21 13:00N 22°30' E 119°52'713.4
2017-Aug-21 12:30N 22°23' E 119°51'  
2017-Aug-16 03:34N 01°14' E 103°57'111.5
2017-Aug-16 03:30N 01°13' E 103°57'611.1
2017-Aug-16 02:59N 01°11' E 103°51'510.7
2017-Aug-16 02:30N 01°09' E 103°47'510.9
2017-Aug-16 02:00N 01°05' E 103°43'510.6
2017-Aug-16 01:30N 01°03' E 103°38'610.6
2017-Aug-16 00:58N 01°06' E 103°33'3 6.9
2017-Aug-16 00:30N 01°09' E 103°31'5 9.5
2017-Aug-16 00:00N 01°11' E 103°36'4 7.0
2017-Aug-15 23:30N 01°12' E 103°39'3 6.6
2017-Aug-15 23:00N 01°15' E 103°39'4 7.5
2017-Aug-15 22:30N 01°18' E 103°42'1 2.4
2017-Aug-15 22:00N 01°17' E 103°41'0 0.0
2017-Aug-15 21:28N 01°17' E 103°41'0 0.0
2017-Aug-15 20:58N 01°17' E 103°41'0 0.0
2017-Aug-15 20:25N 01°17' E 103°41'0 0.0
2017-Aug-15 19:58N 01°17' E 103°41'0 0.0
2017-Aug-15 19:28N 01°17' E 103°41'0 0.0
2017-Aug-15 18:58N 01°17' E 103°41'0 0.0
2017-Aug-15 18:28N 01°17' E 103°41'0 0.0
2017-Aug-15 17:58N 01°17' E 103°41'0 0.0
2017-Aug-15 17:28N 01°17' E 103°41'0 0.0
2017-Aug-15 16:52N 01°17' E 103°41'0 0.0
2017-Aug-15 16:25N 01°17' E 103°41'0 0.0
2017-Aug-15 15:58N 01°17' E 103°41'0 0.0
2017-Aug-15 15:25N 01°17' E 103°41'0 0.0
2017-Aug-15 14:58N 01°17' E 103°41'0 0.0
2017-Aug-15 14:22N 01°17' E 103°41'0 0.0
2017-Aug-15 13:58N 01°17' E 103°41'0 0.0
2017-Aug-15 13:25N 01°17' E 103°41'0 0.0
2017-Aug-15 12:58N 01°17' E 103°41'0 0.0
2017-Aug-15 12:25N 01°17' E 103°41'0 0.0
2017-Aug-15 11:58N 01°17' E 103°41'0 0.0
2017-Aug-15 11:25N 01°17' E 103°41'0 0.0
2017-Aug-15 10:58N 01°17' E 103°41'0 0.0
2017-Aug-15 10:28N 01°17' E 103°41'0 0.0
2017-Aug-15 09:52N 01°17' E 103°41'0 0.0
2017-Aug-15 09:28N 01°17' E 103°41'0 0.0
2017-Aug-15 08:55N 01°17' E 103°41'0 0.0
2017-Aug-15 08:25N 01°17' E 103°41'0 0.0
2017-Aug-15 07:58N 01°17' E 103°41'0 0.0
2017-Aug-15 07:22N 01°17' E 103°41'0 0.0
2017-Aug-15 06:58N 01°17' E 103°41'0 0.0
2017-Aug-15 06:28N 01°17' E 103°41'0 0.0
2017-Aug-15 05:55N 01°17' E 103°41'0 0.0
2017-Aug-15 05:28N 01°17' E 103°41'0 0.0
2017-Aug-15 04:58N 01°17' E 103°41'0 0.0
2017-Aug-15 04:28N 01°17' E 103°41'0 0.0
2017-Aug-15 03:55N 01°17' E 103°41'0 0.0
2017-Aug-15 03:28N 01°17' E 103°41'0 0.0
2017-Aug-15 03:00N 01°17' E 103°41'0 0.2
2017-Aug-15 02:30N 01°17' E 103°41'1 1.8
2017-Aug-15 02:00N 01°18' E 103°42'3 6.6
2017-Aug-15 01:30N 01°15' E 103°39'1 2.3
2017-Aug-15 00:58N 01°14' E 103°39'0 0.1
2017-Aug-15 00:28N 01°14' E 103°39'0 0.2
2017-Aug-14 23:58N 01°14' E 103°39'0 0.0
2017-Aug-14 23:25N 01°14' E 103°39'0 0.0
2017-Aug-14 22:58N 01°14' E 103°39'0 0.3
2017-Aug-14 22:25N 01°14' E 103°39'0 0.1
2017-Aug-14 21:58N 01°14' E 103°39'0 0.0
2017-Aug-14 21:28N 01°14' E 103°39'0 0.0
2017-Aug-14 20:46N 01°14' E 103°39'0 0.2
2017-Aug-14 20:28N 01°14' E 103°39'0 0.1
2017-Aug-14 19:58N 01°14' E 103°39'0 0.1
2017-Aug-14 19:25N 01°14' E 103°39'0 0.0
2017-Aug-14 18:58N 01°14' E 103°39'0 0.0
2017-Aug-14 18:28N 01°14' E 103°39'0 0.0
2017-Aug-14 17:55N 01°14' E 103°39'0 0.0
2017-Aug-14 17:28N 01°14' E 103°39'0 0.0
2017-Aug-14 16:58N 01°14' E 103°39'0 0.0
2017-Aug-14 16:25N 01°14' E 103°39'0 0.0
2017-Aug-14 15:52N 01°14' E 103°39'0 0.0
2017-Aug-14 15:28N 01°14' E 103°39'0 0.0
2017-Aug-14 14:58N 01°14' E 103°39'0 0.0
2017-Aug-14 14:28N 01°14' E 103°39'0 0.0
2017-Aug-14 13:52N 01°14' E 103°39'0 0.0
2017-Aug-14 13:28N 01°14' E 103°39'0 0.0
2017-Aug-14 12:52N 01°14' E 103°39'0 0.1
2017-Aug-14 12:28N 01°14' E 103°39'0 0.0
2017-Aug-14 11:52N 01°14' E 103°39'0 0.1
2017-Aug-14 11:22N 01°14' E 103°39'0 0.0
2017-Aug-14 10:58N 01°14' E 103°39'0 0.0
2017-Aug-14 10:28N 01°14' E 103°39'0 0.0
2017-Aug-14 09:58N 01°14' E 103°39'0 0.1
2017-Aug-14 09:25N 01°14' E 103°39'0 0.2
2017-Aug-14 08:59N 01°14' E 103°39'1 2.7
2017-Aug-14 08:30N 01°13' E 103°40'3 5.2
2017-Aug-14 08:01N 01°16' E 103°41'0 0.6
2017-Aug-14 07:26N 01°16' E 103°41'0 0.0
2017-Aug-14 06:59N 01°16' E 103°41'0 0.0
2017-Aug-14 06:29N 01°16' E 103°41'0 0.0
2017-Aug-14 05:59N 01°16' E 103°41'0 0.0
2017-Aug-14 05:29N 01°16' E 103°41'0 0.0
2017-Aug-14 04:59N 01°16' E 103°41'0 0.0
2017-Aug-14 04:29N 01°16' E 103°41'0 0.0
2017-Aug-14 03:59N 01°16' E 103°41'0 0.0
2017-Aug-14 03:29N 01°16' E 103°41'0 0.0
2017-Aug-14 02:53N 01°16' E 103°41'0 0.0
2017-Aug-14 02:29N 01°16' E 103°41'0 0.0
2017-Aug-14 01:59N 01°16' E 103°41'0 0.0
2017-Aug-14 01:29N 01°16' E 103°41'0 0.0
2017-Aug-14 00:56N 01°16' E 103°41'0 0.0
2017-Aug-14 00:29N 01°16' E 103°41'0 0.0
2017-Aug-13 23:59N 01°16' E 103°41'0 0.0
2017-Aug-13 23:29N 01°16' E 103°41'0 0.0
2017-Aug-13 22:59N 01°16' E 103°41'0 0.0
2017-Aug-13 22:29N 01°16' E 103°41'0 0.0
2017-Aug-13 21:59N 01°16' E 103°41'0 0.0
2017-Aug-13 21:29N 01°16' E 103°41'0 0.0
2017-Aug-13 20:56N 01°16' E 103°41'0 0.0
2017-Aug-13 20:29N 01°16' E 103°41'0 0.0
2017-Aug-13 20:00N 01°16' E 103°41'1 2.9
2017-Aug-13 19:30N 01°14' E 103°42'2 5.0
2017-Aug-13 19:00N 01°15' E 103°39'3 6.8
2017-Aug-13 18:30N 01°18' E 103°41'0 0.1
2017-Aug-13 17:54N 01°18' E 103°41'0 0.0
2017-Aug-13 17:30N 01°18' E 103°41'0 0.0
2017-Aug-13 16:57N 01°18' E 103°41'0 0.0
2017-Aug-13 16:27N 01°18' E 103°41'0 0.0
2017-Aug-13 15:57N 01°18' E 103°41'0 0.0
2017-Aug-13 15:30N 01°18' E 103°41'0 0.0
2017-Aug-13 14:57N 01°18' E 103°41'0 0.0
2017-Aug-13 14:27N 01°18' E 103°41'0 0.0
2017-Aug-13 13:54N 01°18' E 103°41'0 0.0
2017-Aug-13 13:30N 01°18' E 103°41'0 0.0
2017-Aug-13 12:57N 01°18' E 103°41'0 0.0
2017-Aug-13 12:30N 01°18' E 103°41'0 0.0
2017-Aug-13 11:57N 01°18' E 103°41'0 0.0
2017-Aug-13 11:30N 01°18' E 103°41'0 0.0
2017-Aug-13 10:57N 01°18' E 103°41'0 0.0
2017-Aug-13 10:27N 01°18' E 103°41'0 0.0
2017-Aug-13 09:54N 01°18' E 103°41'0 0.0
2017-Aug-13 09:30N 01°18' E 103°41'0 0.0
2017-Aug-13 08:57N 01°18' E 103°41'0 0.0
2017-Aug-13 08:27N 01°18' E 103°41'0 0.0
2017-Aug-13 07:54N 01°18' E 103°41'0 0.0
2017-Aug-13 07:30N 01°18' E 103°41'0 0.0
2017-Aug-13 06:57N 01°18' E 103°41'0 0.0
2017-Aug-13 06:30N 01°18' E 103°41'0 0.0
2017-Aug-13 05:57N 01°18' E 103°41'0 0.0
2017-Aug-13 05:30N 01°18' E 103°41'0 0.0
2017-Aug-13 04:57N 01°18' E 103°41'0 0.0
2017-Aug-13 04:30N 01°18' E 103°41'0 0.0
2017-Aug-13 03:51N 01°18' E 103°41'0 0.0
2017-Aug-13 03:30N 01°18' E 103°41'0 0.0
2017-Aug-13 02:57N 01°18' E 103°41'0 0.0
2017-Aug-13 02:30N 01°18' E 103°41'0 0.0
2017-Aug-13 01:57N 01°18' E 103°41'0 0.0
2017-Aug-13 01:27N 01°18' E 103°41'0 0.0
2017-Aug-13 00:54N 01°18' E 103°41'0 0.0
2017-Aug-13 00:30N 01°18' E 103°41'0 0.0
2017-Aug-12 23:57N 01°18' E 103°41'0 0.0
2017-Aug-12 23:30N 01°18' E 103°41'0 0.0
2017-Aug-12 22:57N 01°18' E 103°41'0 0.0
2017-Aug-12 22:27N 01°18' E 103°41'0 0.0
2017-Aug-12 21:57N 01°18' E 103°41'0 0.0
2017-Aug-12 21:24N 01°18' E 103°41'0 0.0
2017-Aug-12 20:57N 01°18' E 103°41'0 0.0
2017-Aug-12 20:30N 01°18' E 103°41'0 0.0
2017-Aug-12 19:54N 01°18' E 103°41'0 0.0
2017-Aug-12 19:24N 01°18' E 103°41'0 0.0
2017-Aug-12 18:54N 01°18' E 103°41'0 0.0
2017-Aug-12 18:30N 01°18' E 103°41'0 0.0
2017-Aug-12 17:57N 01°18' E 103°41'0 0.0
2017-Aug-12 17:30N 01°18' E 103°41'0 0.0
2017-Aug-12 16:57N 01°18' E 103°41'0 0.0
2017-Aug-12 16:30N 01°18' E 103°41'0 0.0
2017-Aug-12 15:57N 01°18' E 103°41'0 0.0
2017-Aug-12 15:31N 01°18' E 103°41'0 0.1
2017-Aug-12 15:01N 01°18' E 103°41'2 5.0
2017-Aug-12 14:30N 01°16' E 103°39'3 6.3
2017-Aug-12 14:00N 01°13' E 103°39'0 0.2
2017-Aug-12 13:30N 01°13' E 103°39'0 0.1
2017-Aug-12 12:54N 01°13' E 103°39'0 0.0
2017-Aug-12 12:30N 01°13' E 103°39'0 0.1
2017-Aug-12 11:54N 01°13' E 103°39'0 0.0
2017-Aug-12 11:30N 01°13' E 103°39'0 0.0
2017-Aug-12 10:57N 01°13' E 103°39'0 0.0
2017-Aug-12 10:30N 01°13' E 103°39'0 0.1
2017-Aug-12 09:57N 01°13' E 103°39'0 0.0
2017-Aug-12 09:27N 01°13' E 103°39'0 0.0
2017-Aug-12 08:54N 01°13' E 103°39'0 0.0
2017-Aug-12 08:30N 01°13' E 103°39'0 0.0
2017-Aug-12 07:57N 01°13' E 103°39'0 0.0
2017-Aug-12 07:30N 01°13' E 103°39'0 0.0
2017-Aug-12 06:54N 01°13' E 103°39'0 0.0
2017-Aug-12 06:30N 01°13' E 103°39'0 0.2
2017-Aug-12 05:54N 01°13' E 103°39'0 0.2
2017-Aug-12 05:27N 01°13' E 103°39'0 0.1
2017-Aug-12 04:57N 01°13' E 103°39'0 0.0
2017-Aug-12 04:27N 01°13' E 103°39'0 0.1
2017-Aug-12 03:54N 01°13' E 103°39'0 0.0
2017-Aug-12 03:30N 01°13' E 103°39'0 0.1
2017-Aug-12 02:57N 01°13' E 103°39'0 0.0
2017-Aug-12 02:30N 01°13' E 103°39'0 0.0
2017-Aug-12 01:57N 01°13' E 103°39'0 0.0
2017-Aug-12 01:30N 01°13' E 103°39'0 0.0
2017-Aug-12 00:57N 01°13' E 103°39'0 0.1
2017-Aug-12 00:30N 01°13' E 103°39'0 0.0
2017-Aug-11 23:54N 01°13' E 103°39'0 0.0
2017-Aug-11 23:30N 01°13' E 103°39'0 0.2
2017-Aug-11 22:45N 01°13' E 103°39'0 0.0
2017-Aug-11 22:27N 01°13' E 103°39'0 0.0
2017-Aug-11 22:00N 01°13' E 103°39'0 0.3
2017-Aug-11 21:30N 01°13' E 103°39'0 0.0
2017-Aug-11 20:57N 01°13' E 103°39'0 0.0
2017-Aug-11 20:30N 01°13' E 103°39'0 0.0
2017-Aug-11 19:57N 01°13' E 103°39'0 0.1
2017-Aug-11 19:27N 01°13' E 103°39'0 0.2
2017-Aug-11 18:57N 01°13' E 103°39'0 0.0
2017-Aug-11 18:27N 01°13' E 103°39'0 0.0
2017-Aug-11 17:54N 01°13' E 103°39'0 0.0
2017-Aug-11 17:30N 01°13' E 103°39'0 0.0
2017-Aug-11 16:48N 01°13' E 103°39'0 0.2
2017-Aug-11 16:30N 01°13' E 103°39'0 0.0
2017-Aug-11 15:54N 01°13' E 103°39'0 0.1
2017-Aug-11 15:27N 01°13' E 103°39'  
Track history (hours):
 
Tides and Currents Weather Stations Pressure Air Temp Water Temp Dewpoint Dewpoint Depression Visibility Wind Speed Wind Dir Waves Ship Positions

Wawasan Ruby

Last reported at 2017-Aug-21 14:56 UTC. Time now 2017-Aug-21 23:50 UTC.
Position N 22°54' E 119°53'.

Length 146 m; draft 8.8 m.

Type: Tanker. MMSI: 355619000.

Date/timePositionNaut miles runAvg speedWind from/ knotsBaromVisibWave heightAir tempDewpointWater temp
2017-Aug-21 14:56N 22°54' E 119°53'611.7
2017-Aug-21 14:27N 22°48' E 119°53'712.1
2017-Aug-21 13:53N 22°41' E 119°53'512.9
2017-Aug-21 13:30N 22°36' E 119°52'613.0
2017-Aug-21 13:00N 22°30' E 119°52'713.4
2017-Aug-21 12:30N 22°23' E 119°51'  
2017-Aug-16 03:34N 01°14' E 103°57'111.5
2017-Aug-16 03:30N 01°13' E 103°57'611.1
2017-Aug-16 02:59N 01°11' E 103°51'510.7
2017-Aug-16 02:30N 01°09' E 103°47'510.9
2017-Aug-16 02:00N 01°05' E 103°43'510.6
2017-Aug-16 01:30N 01°03' E 103°38'610.6
2017-Aug-16 00:58N 01°06' E 103°33'3 6.9
2017-Aug-16 00:30N 01°09' E 103°31'5 9.5
2017-Aug-16 00:00N 01°11' E 103°36'4 7.0
2017-Aug-15 23:30N 01°12' E 103°39'3 6.6
2017-Aug-15 23:00N 01°15' E 103°39'4 7.5
2017-Aug-15 22:30N 01°18' E 103°42'1 2.4
2017-Aug-15 22:00N 01°17' E 103°41'0 0.0
2017-Aug-15 21:28N 01°17' E 103°41'0 0.0
2017-Aug-15 20:58N 01°17' E 103°41'0 0.0
2017-Aug-15 20:25N 01°17' E 103°41'0 0.0
2017-Aug-15 19:58N 01°17' E 103°41'0 0.0
2017-Aug-15 19:28N 01°17' E 103°41'0 0.0
2017-Aug-15 18:58N 01°17' E 103°41'0 0.0
2017-Aug-15 18:28N 01°17' E 103°41'0 0.0
2017-Aug-15 17:58N 01°17' E 103°41'0 0.0
2017-Aug-15 17:28N 01°17' E 103°41'0 0.0
2017-Aug-15 16:52N 01°17' E 103°41'0 0.0
2017-Aug-15 16:25N 01°17' E 103°41'0 0.0
2017-Aug-15 15:58N 01°17' E 103°41'0 0.0
2017-Aug-15 15:25N 01°17' E 103°41'0 0.0
2017-Aug-15 14:58N 01°17' E 103°41'0 0.0
2017-Aug-15 14:22N 01°17' E 103°41'0 0.0
2017-Aug-15 13:58N 01°17' E 103°41'0 0.0
2017-Aug-15 13:25N 01°17' E 103°41'0 0.0
2017-Aug-15 12:58N 01°17' E 103°41'0 0.0
2017-Aug-15 12:25N 01°17' E 103°41'0 0.0
2017-Aug-15 11:58N 01°17' E 103°41'0 0.0
2017-Aug-15 11:25N 01°17' E 103°41'0 0.0
2017-Aug-15 10:58N 01°17' E 103°41'0 0.0
2017-Aug-15 10:28N 01°17' E 103°41'0 0.0
2017-Aug-15 09:52N 01°17' E 103°41'0 0.0
2017-Aug-15 09:28N 01°17' E 103°41'0 0.0
2017-Aug-15 08:55N 01°17' E 103°41'0 0.0
2017-Aug-15 08:25N 01°17' E 103°41'0 0.0
2017-Aug-15 07:58N 01°17' E 103°41'0 0.0
2017-Aug-15 07:22N 01°17' E 103°41'0 0.0
2017-Aug-15 06:58N 01°17' E 103°41'0 0.0
2017-Aug-15 06:28N 01°17' E 103°41'0 0.0
2017-Aug-15 05:55N 01°17' E 103°41'0 0.0
2017-Aug-15 05:28N 01°17' E 103°41'0 0.0
2017-Aug-15 04:58N 01°17' E 103°41'0 0.0
2017-Aug-15 04:28N 01°17' E 103°41'0 0.0
2017-Aug-15 03:55N 01°17' E 103°41'0 0.0
2017-Aug-15 03:28N 01°17' E 103°41'0 0.0
2017-Aug-15 03:00N 01°17' E 103°41'0 0.2
2017-Aug-15 02:30N 01°17' E 103°41'1 1.8
2017-Aug-15 02:00N 01°18' E 103°42'3 6.6
2017-Aug-15 01:30N 01°15' E 103°39'1 2.3
2017-Aug-15 00:58N 01°14' E 103°39'0 0.1
2017-Aug-15 00:28N 01°14' E 103°39'0 0.2
2017-Aug-14 23:58N 01°14' E 103°39'0 0.0
2017-Aug-14 23:25N 01°14' E 103°39'0 0.0
2017-Aug-14 22:58N 01°14' E 103°39'0 0.3
2017-Aug-14 22:25N 01°14' E 103°39'0 0.1
2017-Aug-14 21:58N 01°14' E 103°39'0 0.0
2017-Aug-14 21:28N 01°14' E 103°39'0 0.0
2017-Aug-14 20:46N 01°14' E 103°39'0 0.2
2017-Aug-14 20:28N 01°14' E 103°39'0 0.1
2017-Aug-14 19:58N 01°14' E 103°39'0 0.1
2017-Aug-14 19:25N 01°14' E 103°39'0 0.0
2017-Aug-14 18:58N 01°14' E 103°39'0 0.0
2017-Aug-14 18:28N 01°14' E 103°39'0 0.0
2017-Aug-14 17:55N 01°14' E 103°39'0 0.0
2017-Aug-14 17:28N 01°14' E 103°39'0 0.0
2017-Aug-14 16:58N 01°14' E 103°39'0 0.0
2017-Aug-14 16:25N 01°14' E 103°39'0 0.0
2017-Aug-14 15:52N 01°14' E 103°39'0 0.0
2017-Aug-14 15:28N 01°14' E 103°39'0 0.0
2017-Aug-14 14:58N 01°14' E 103°39'0 0.0
2017-Aug-14 14:28N 01°14' E 103°39'0 0.0
2017-Aug-14 13:52N 01°14' E 103°39'0 0.0
2017-Aug-14 13:28N 01°14' E 103°39'0 0.0
2017-Aug-14 12:52N 01°14' E 103°39'0 0.1
2017-Aug-14 12:28N 01°14' E 103°39'0 0.0
2017-Aug-14 11:52N 01°14' E 103°39'0 0.1
2017-Aug-14 11:22N 01°14' E 103°39'0 0.0
2017-Aug-14 10:58N 01°14' E 103°39'0 0.0
2017-Aug-14 10:28N 01°14' E 103°39'0 0.0
2017-Aug-14 09:58N 01°14' E 103°39'0 0.1
2017-Aug-14 09:25N 01°14' E 103°39'0 0.2
2017-Aug-14 08:59N 01°14' E 103°39'1 2.7
2017-Aug-14 08:30N 01°13' E 103°40'3 5.2
2017-Aug-14 08:01N 01°16' E 103°41'0 0.6
2017-Aug-14 07:26N 01°16' E 103°41'0 0.0
2017-Aug-14 06:59N 01°16' E 103°41'0 0.0
2017-Aug-14 06:29N 01°16' E 103°41'0 0.0
2017-Aug-14 05:59N 01°16' E 103°41'0 0.0
2017-Aug-14 05:29N 01°16' E 103°41'0 0.0
2017-Aug-14 04:59N 01°16' E 103°41'0 0.0
2017-Aug-14 04:29N 01°16' E 103°41'0 0.0
2017-Aug-14 03:59N 01°16' E 103°41'0 0.0
2017-Aug-14 03:29N 01°16' E 103°41'0 0.0
2017-Aug-14 02:53N 01°16' E 103°41'0 0.0
2017-Aug-14 02:29N 01°16' E 103°41'0 0.0
2017-Aug-14 01:59N 01°16' E 103°41'0 0.0
2017-Aug-14 01:29N 01°16' E 103°41'0 0.0
2017-Aug-14 00:56N 01°16' E 103°41'0 0.0
2017-Aug-14 00:29N 01°16' E 103°41'0 0.0
2017-Aug-13 23:59N 01°16' E 103°41'0 0.0
2017-Aug-13 23:29N 01°16' E 103°41'0 0.0
2017-Aug-13 22:59N 01°16' E 103°41'0 0.0
2017-Aug-13 22:29N 01°16' E 103°41'0 0.0
2017-Aug-13 21:59N 01°16' E 103°41'0 0.0
2017-Aug-13 21:29N 01°16' E 103°41'0 0.0
2017-Aug-13 20:56N 01°16' E 103°41'0 0.0
2017-Aug-13 20:29N 01°16' E 103°41'0 0.0
2017-Aug-13 20:00N 01°16' E 103°41'1 2.9
2017-Aug-13 19:30N 01°14' E 103°42'2 5.0
2017-Aug-13 19:00N 01°15' E 103°39'3 6.8
2017-Aug-13 18:30N 01°18' E 103°41'0 0.1
2017-Aug-13 17:54N 01°18' E 103°41'0 0.0
2017-Aug-13 17:30N 01°18' E 103°41'0 0.0
2017-Aug-13 16:57N 01°18' E 103°41'0 0.0
2017-Aug-13 16:27N 01°18' E 103°41'0 0.0
2017-Aug-13 15:57N 01°18' E 103°41'0 0.0
2017-Aug-13 15:30N 01°18' E 103°41'0 0.0
2017-Aug-13 14:57N 01°18' E 103°41'0 0.0
2017-Aug-13 14:27N 01°18' E 103°41'0 0.0
2017-Aug-13 13:54N 01°18' E 103°41'0 0.0
2017-Aug-13 13:30N 01°18' E 103°41'0 0.0
2017-Aug-13 12:57N 01°18' E 103°41'0 0.0
2017-Aug-13 12:30N 01°18' E 103°41'0 0.0
2017-Aug-13 11:57N 01°18' E 103°41'0 0.0
2017-Aug-13 11:30N 01°18' E 103°41'0 0.0
2017-Aug-13 10:57N 01°18' E 103°41'0 0.0
2017-Aug-13 10:27N 01°18' E 103°41'0 0.0
2017-Aug-13 09:54N 01°18' E 103°41'0 0.0
2017-Aug-13 09:30N 01°18' E 103°41'0 0.0
2017-Aug-13 08:57N 01°18' E 103°41'0 0.0
2017-Aug-13 08:27N 01°18' E 103°41'0 0.0
2017-Aug-13 07:54N 01°18' E 103°41'0 0.0
2017-Aug-13 07:30N 01°18' E 103°41'0 0.0
2017-Aug-13 06:57N 01°18' E 103°41'0 0.0
2017-Aug-13 06:30N 01°18' E 103°41'0 0.0
2017-Aug-13 05:57N 01°18' E 103°41'0 0.0
2017-Aug-13 05:30N 01°18' E 103°41'0 0.0
2017-Aug-13 04:57N 01°18' E 103°41'0 0.0
2017-Aug-13 04:30N 01°18' E 103°41'0 0.0
2017-Aug-13 03:51N 01°18' E 103°41'0 0.0
2017-Aug-13 03:30N 01°18' E 103°41'0 0.0
2017-Aug-13 02:57N 01°18' E 103°41'0 0.0
2017-Aug-13 02:30N 01°18' E 103°41'0 0.0
2017-Aug-13 01:57N 01°18' E 103°41'0 0.0
2017-Aug-13 01:27N 01°18' E 103°41'0 0.0
2017-Aug-13 00:54N 01°18' E 103°41'0 0.0
2017-Aug-13 00:30N 01°18' E 103°41'0 0.0
2017-Aug-12 23:57N 01°18' E 103°41'0 0.0
2017-Aug-12 23:30N 01°18' E 103°41'0 0.0
2017-Aug-12 22:57N 01°18' E 103°41'0 0.0
2017-Aug-12 22:27N 01°18' E 103°41'0 0.0
2017-Aug-12 21:57N 01°18' E 103°41'0 0.0
2017-Aug-12 21:24N 01°18' E 103°41'0 0.0
2017-Aug-12 20:57N 01°18' E 103°41'0 0.0
2017-Aug-12 20:30N 01°18' E 103°41'0 0.0
2017-Aug-12 19:54N 01°18' E 103°41'0 0.0
2017-Aug-12 19:24N 01°18' E 103°41'0 0.0
2017-Aug-12 18:54N 01°18' E 103°41'0 0.0
2017-Aug-12 18:30N 01°18' E 103°41'0 0.0
2017-Aug-12 17:57N 01°18' E 103°41'0 0.0
2017-Aug-12 17:30N 01°18' E 103°41'0 0.0
2017-Aug-12 16:57N 01°18' E 103°41'0 0.0
2017-Aug-12 16:30N 01°18' E 103°41'0 0.0
2017-Aug-12 15:57N 01°18' E 103°41'0 0.0
2017-Aug-12 15:31N 01°18' E 103°41'0 0.1
2017-Aug-12 15:01N 01°18' E 103°41'2 5.0
2017-Aug-12 14:30N 01°16' E 103°39'3 6.3
2017-Aug-12 14:00N 01°13' E 103°39'0 0.2
2017-Aug-12 13:30N 01°13' E 103°39'0 0.1
2017-Aug-12 12:54N 01°13' E 103°39'0 0.0
2017-Aug-12 12:30N 01°13' E 103°39'0 0.1
2017-Aug-12 11:54N 01°13' E 103°39'0 0.0
2017-Aug-12 11:30N 01°13' E 103°39'0 0.0
2017-Aug-12 10:57N 01°13' E 103°39'0 0.0
2017-Aug-12 10:30N 01°13' E 103°39'0 0.1
2017-Aug-12 09:57N 01°13' E 103°39'0 0.0
2017-Aug-12 09:27N 01°13' E 103°39'0 0.0
2017-Aug-12 08:54N 01°13' E 103°39'0 0.0
2017-Aug-12 08:30N 01°13' E 103°39'0 0.0
2017-Aug-12 07:57N 01°13' E 103°39'0 0.0
2017-Aug-12 07:30N 01°13' E 103°39'0 0.0
2017-Aug-12 06:54N 01°13' E 103°39'0 0.0
2017-Aug-12 06:30N 01°13' E 103°39'0 0.2
2017-Aug-12 05:54N 01°13' E 103°39'0 0.2
2017-Aug-12 05:27N 01°13' E 103°39'0 0.1
2017-Aug-12 04:57N 01°13' E 103°39'0 0.0
2017-Aug-12 04:27N 01°13' E 103°39'0 0.1
2017-Aug-12 03:54N 01°13' E 103°39'0 0.0
2017-Aug-12 03:30N 01°13' E 103°39'0 0.1
2017-Aug-12 02:57N 01°13' E 103°39'0 0.0
2017-Aug-12 02:30N 01°13' E 103°39'0 0.0
2017-Aug-12 01:57N 01°13' E 103°39'0 0.0
2017-Aug-12 01:30N 01°13' E 103°39'0 0.0
2017-Aug-12 00:57N 01°13' E 103°39'0 0.1
2017-Aug-12 00:30N 01°13' E 103°39'0 0.0
2017-Aug-11 23:54N 01°13' E 103°39'0 0.0
2017-Aug-11 23:30N 01°13' E 103°39'0 0.2
2017-Aug-11 22:45N 01°13' E 103°39'0 0.0
2017-Aug-11 22:27N 01°13' E 103°39'0 0.0
2017-Aug-11 22:00N 01°13' E 103°39'0 0.3
2017-Aug-11 21:30N 01°13' E 103°39'0 0.0
2017-Aug-11 20:57N 01°13' E 103°39'0 0.0
2017-Aug-11 20:30N 01°13' E 103°39'0 0.0
2017-Aug-11 19:57N 01°13' E 103°39'0 0.1
2017-Aug-11 19:27N 01°13' E 103°39'0 0.2
2017-Aug-11 18:57N 01°13' E 103°39'0 0.0
2017-Aug-11 18:27N 01°13' E 103°39'0 0.0
2017-Aug-11 17:54N 01°13' E 103°39'0 0.0
2017-Aug-11 17:30N 01°13' E 103°39'0 0.0
2017-Aug-11 16:48N 01°13' E 103°39'0 0.2
2017-Aug-11 16:30N 01°13' E 103°39'0 0.0
2017-Aug-11 15:54N 01°13' E 103°39'0 0.1
2017-Aug-11 15:27N 01°13' E 103°39'  

Dump ship's entire track history